createdAt,value
2022-07-28T00:02:38.092Z,8.80
2022-07-28T00:07:40.635Z,8.70
2022-07-28T00:12:43.132Z,8.60
2022-07-28T00:17:45.696Z,8.50
2022-07-28T00:22:48.282Z,8.40
2022-07-28T00:27:50.842Z,8.40
2022-07-28T00:32:53.440Z,8.30
2022-07-28T00:37:55.914Z,8.20
2022-07-28T00:42:58.746Z,7.90
2022-07-28T00:48:01.188Z,7.90
2022-07-28T00:53:03.913Z,7.80
2022-07-28T00:58:07.839Z,7.80
2022-07-28T01:03:10.692Z,7.80
2022-07-28T01:08:38.349Z,7.60
2022-07-28T01:14:11.241Z,7.50
2022-07-28T01:19:34.255Z,7.30
2022-07-28T01:25:07.511Z,7.30
2022-07-28T01:30:22.229Z,7.30
2022-07-28T01:35:46.331Z,7.00
2022-07-28T01:40:50.433Z,7.10
2022-07-28T01:45:56.225Z,7.00
2022-07-28T01:50:59.141Z,7.10
2022-07-28T01:56:04.317Z,7.10
2022-07-28T02:01:07.766Z,7.00
2022-07-28T02:06:12.315Z,6.90
2022-07-28T02:11:33.229Z,6.80
2022-07-28T02:16:36.215Z,6.80
2022-07-28T02:21:39.676Z,6.60
2022-07-28T02:27:06.881Z,6.70
2022-07-28T02:32:26.910Z,6.40
2022-07-28T02:37:37.859Z,6.30
2022-07-28T02:42:42.090Z,6.50
2022-07-28T02:47:48.906Z,6.50
2022-07-28T02:52:53.886Z,6.30
2022-07-28T02:57:58.451Z,6.30
2022-07-28T03:03:01.550Z,6.30
2022-07-28T03:08:04.218Z,6.30
2022-07-28T03:13:07.328Z,6.40
2022-07-28T03:18:10.147Z,6.40
2022-07-28T03:23:13.161Z,6.90
2022-07-28T03:28:19.878Z,7.60
2022-07-28T03:33:23.317Z,8.30
2022-07-28T03:38:41.818Z,9.20
2022-07-28T03:43:44.862Z,9.60
2022-07-28T03:48:47.788Z,10.20
2022-07-28T03:53:50.619Z,11.10
2022-07-28T03:58:53.095Z,11.90
2022-07-28T04:03:55.745Z,12.50
2022-07-28T04:08:58.317Z,13.20
2022-07-28T04:14:00.918Z,15.00
2022-07-28T04:19:03.893Z,14.60
2022-07-28T04:24:08.906Z,15.80
2022-07-28T04:29:11.492Z,16.00
2022-07-28T04:34:15.497Z,16.10
2022-07-28T04:39:18.395Z,17.10
2022-07-28T04:44:23.321Z,17.80
2022-07-28T04:49:26.527Z,18.20
2022-07-28T04:54:30.532Z,18.50
2022-07-28T04:59:33.296Z,19.30
2022-07-28T05:04:36.026Z,19.90
2022-07-28T05:09:38.545Z,20.40
2022-07-28T05:14:41.128Z,20.10
2022-07-28T05:19:43.823Z,20.30
2022-07-28T05:24:46.415Z,20.90
2022-07-28T05:29:49.987Z,21.30
2022-07-28T05:34:54.051Z,21.60
2022-07-28T05:39:56.536Z,22.10
2022-07-28T05:44:59.069Z,22.10
2022-07-28T05:50:02.395Z,23.00
2022-07-28T05:55:06.896Z,23.10
2022-07-28T06:00:12.407Z,23.40
2022-07-28T06:05:17.334Z,24.00
2022-07-28T06:10:22.360Z,24.00
2022-07-28T06:15:27.134Z,21.50
2022-07-28T06:20:30.309Z,20.10
2022-07-28T06:25:32.956Z,19.60
2022-07-28T06:30:35.591Z,19.40
2022-07-28T06:35:48.217Z,19.40
2022-07-28T06:40:54.125Z,19.40
2022-07-28T06:45:56.637Z,19.60
2022-07-28T06:50:59.841Z,19.50
2022-07-28T06:56:04.288Z,19.50
2022-07-28T07:01:07.936Z,19.70
2022-07-28T07:06:11.219Z,19.70
2022-07-28T07:11:13.889Z,19.50
2022-07-28T07:16:16.699Z,19.60
2022-07-28T07:21:22.584Z,19.50
2022-07-28T07:26:25.509Z,19.60
2022-07-28T07:31:28.072Z,19.70
2022-07-28T07:36:30.779Z,19.70
2022-07-28T07:41:34.254Z,19.60
2022-07-28T07:46:38.699Z,20.00
2022-07-28T07:51:41.369Z,20.30
2022-07-28T07:56:43.931Z,19.80
2022-07-28T08:01:50.799Z,19.90
2022-07-28T08:06:53.791Z,20.00
2022-07-28T08:11:57.406Z,20.10
2022-07-28T08:17:00.386Z,20.40
2022-07-28T08:22:03.057Z,20.10
2022-07-28T08:27:05.817Z,20.20
2022-07-28T08:32:08.489Z,20.10
2022-07-28T08:37:11.108Z,20.50
2022-07-28T08:42:34.469Z,20.70
2022-07-28T08:47:51.972Z,20.80
2022-07-28T08:53:01.397Z,20.80
2022-07-28T08:58:04.678Z,21.10
2022-07-28T09:03:07.848Z,20.70
2022-07-28T09:08:12.539Z,20.20
2022-07-28T09:13:19.374Z,20.70
2022-07-28T09:18:21.969Z,21.00
2022-07-28T09:23:42.468Z,20.80
2022-07-28T09:28:58.307Z,20.90
2022-07-28T09:34:05.314Z,20.90
2022-07-28T09:39:08.518Z,21.00
2022-07-28T09:44:21.944Z,21.40
2022-07-28T09:49:43.409Z,21.00
2022-07-28T09:55:05.030Z,21.20
2022-07-28T10:00:11.885Z,21.00
2022-07-28T10:05:14.511Z,21.10
2022-07-28T10:10:21.092Z,21.80
2022-07-28T10:15:46.731Z,21.70
2022-07-28T10:20:53.873Z,22.10
2022-07-28T10:25:58.349Z,22.40
2022-07-28T10:31:03.054Z,22.40
2022-07-28T10:36:07.082Z,22.20
2022-07-28T10:41:11.686Z,22.00
2022-07-28T10:46:16.622Z,22.40
2022-07-28T10:51:21.416Z,22.50
2022-07-28T10:56:48.199Z,22.60
2022-07-28T11:01:50.928Z,22.40
2022-07-28T11:07:13.630Z,22.40
2022-07-28T11:12:16.831Z,22.60
2022-07-28T11:17:24.410Z,22.60
2022-07-28T11:22:36.257Z,22.60
2022-07-28T11:27:46.769Z,22.20
2022-07-28T11:32:55.095Z,22.50
2022-07-28T11:38:03.905Z,22.70
2022-07-28T11:43:22.343Z,23.00
2022-07-28T11:48:26.439Z,23.30
2022-07-28T11:53:53.952Z,23.10
2022-07-28T11:59:02.088Z,23.20
2022-07-28T12:04:15.813Z,23.40
2022-07-28T12:09:23.491Z,23.40
2022-07-28T12:14:30.136Z,23.40
2022-07-28T12:19:33.155Z,24.10
2022-07-28T12:24:45.666Z,24.40
2022-07-28T12:29:59.626Z,24.20
2022-07-28T12:35:02.721Z,24.40
2022-07-28T12:40:07.991Z,23.90
2022-07-28T12:45:10.956Z,23.50
2022-07-28T12:50:19.996Z,23.50
2022-07-28T12:55:25.053Z,23.60
2022-07-28T13:00:31.406Z,23.50
2022-07-28T13:05:59.034Z,23.70
2022-07-28T13:11:01.645Z,23.60
2022-07-28T13:16:24.492Z,23.60
2022-07-28T13:21:56.642Z,23.80
2022-07-28T13:27:02.528Z,23.40
2022-07-28T13:32:05.349Z,24.30
2022-07-28T13:37:08.529Z,24.00
2022-07-28T13:42:14.342Z,23.40
2022-07-28T13:47:17.187Z,23.30
2022-07-28T13:52:32.477Z,23.60
2022-07-28T13:58:15.466Z,23.40
2022-07-28T14:03:18.038Z,23.70
2022-07-28T14:08:21.168Z,23.70
2022-07-28T14:13:31.535Z,23.90
2022-07-28T14:18:40.695Z,24.00
2022-07-28T14:23:43.520Z,24.00
2022-07-28T14:28:46.042Z,24.00
2022-07-28T14:33:54.262Z,24.20
2022-07-28T14:38:57.499Z,24.20
2022-07-28T14:44:00.253Z,24.10
2022-07-28T14:49:02.971Z,24.20
2022-07-28T14:54:05.631Z,24.20
2022-07-28T14:59:08.346Z,24.00
2022-07-28T15:04:12.675Z,23.90
2022-07-28T15:09:15.670Z,24.10
2022-07-28T15:14:20.464Z,24.30
2022-07-28T15:19:24.012Z,23.90
2022-07-28T15:24:30.593Z,24.10
2022-07-28T15:29:35.375Z,24.00
2022-07-28T15:34:38.402Z,23.70
2022-07-28T15:39:45.017Z,23.80
2022-07-28T15:44:49.324Z,24.00
2022-07-28T15:49:52.099Z,23.70
2022-07-28T15:54:55.475Z,23.50
2022-07-28T15:59:57.971Z,23.50
2022-07-28T16:05:01.232Z,23.70
2022-07-28T16:10:04.325Z,23.60
2022-07-28T16:15:07.423Z,23.40
2022-07-28T16:20:10.665Z,23.40
2022-07-28T16:25:16.942Z,23.50
2022-07-28T16:30:20.194Z,23.70
2022-07-28T16:35:22.734Z,23.40
2022-07-28T16:40:27.382Z,23.40
2022-07-28T16:45:31.289Z,23.20
2022-07-28T16:50:34.476Z,22.90
2022-07-28T16:55:37.420Z,22.60
2022-07-28T17:00:40.062Z,22.70
2022-07-28T17:05:43.439Z,24.50
2022-07-28T17:10:47.205Z,25.10
2022-07-28T17:15:49.865Z,25.20
2022-07-28T17:20:52.528Z,25.40
2022-07-28T17:26:40.580Z,25.40
2022-07-28T17:31:17.758Z,24.80
2022-07-28T17:36:20.507Z,24.20
2022-07-28T17:41:22.999Z,23.00
2022-07-28T17:46:26.477Z,22.40
2022-07-28T17:51:30.838Z,21.80
2022-07-28T17:56:33.475Z,21.50
2022-07-28T18:01:38.291Z,21.00
2022-07-28T18:06:44.728Z,20.50
2022-07-28T18:11:56.692Z,20.60
2022-07-28T18:17:01.168Z,19.90
2022-07-28T18:22:03.876Z,19.40
2022-07-28T18:27:06.988Z,18.90
2022-07-28T18:32:09.828Z,18.30
2022-07-28T18:37:18.352Z,17.80
2022-07-28T18:42:20.877Z,17.20
2022-07-28T18:47:25.157Z,16.70
2022-07-28T18:52:27.801Z,16.30
2022-07-28T18:57:30.570Z,16.40
2022-07-28T19:02:33.291Z,15.80
2022-07-28T19:07:36.245Z,15.30
2022-07-28T19:12:38.922Z,15.20
2022-07-28T19:17:41.508Z,15.30
2022-07-28T19:22:43.954Z,15.00
2022-07-28T19:27:46.510Z,14.70
2022-07-28T19:32:48.955Z,15.10
2022-07-28T19:37:51.423Z,15.30
2022-07-28T19:42:54.022Z,15.20
2022-07-28T19:47:56.546Z,15.10
2022-07-28T19:52:59.393Z,15.10
2022-07-28T19:58:03.891Z,14.80
2022-07-28T20:03:59.772Z,14.70
2022-07-28T20:08:31.284Z,14.40
2022-07-28T20:13:34.117Z,14.30
2022-07-28T20:18:36.756Z,14.40
2022-07-28T20:23:41.014Z,13.80
2022-07-28T20:28:44.185Z,13.60
2022-07-28T20:33:47.441Z,13.20
2022-07-28T20:38:50.030Z,13.30
2022-07-28T20:44:18.333Z,13.00
2022-07-28T20:49:15.393Z,12.80
2022-07-28T20:54:18.940Z,12.30
2022-07-28T20:59:27.213Z,12.40
2022-07-28T21:04:30.335Z,12.60
2022-07-28T21:09:33.491Z,12.50
2022-07-28T21:14:36.062Z,12.60
2022-07-28T21:19:38.663Z,12.80
2022-07-28T21:24:41.191Z,12.70
2022-07-28T21:29:43.756Z,12.40
2022-07-28T21:34:46.587Z,11.90
2022-07-28T21:39:49.039Z,11.50
2022-07-28T21:44:51.734Z,11.40
2022-07-28T21:49:54.198Z,11.60
2022-07-28T21:54:58.929Z,11.20
2022-07-28T22:00:02.228Z,11.10
2022-07-28T22:05:05.272Z,11.10
2022-07-28T22:10:08.225Z,11.00
2022-07-28T22:15:11.162Z,11.00
2022-07-28T22:20:13.824Z,10.80
2022-07-28T22:25:16.571Z,11.00
2022-07-28T22:30:19.495Z,11.10
2022-07-28T22:35:22.330Z,11.10
2022-07-28T22:40:25.189Z,10.90
2022-07-28T22:45:50.447Z,10.60
2022-07-28T22:50:50.530Z,10.70
2022-07-28T22:55:53.069Z,10.70
2022-07-28T23:00:55.678Z,10.70
2022-07-28T23:06:00.158Z,10.80
2022-07-28T23:11:02.911Z,10.90
2022-07-28T23:16:09.046Z,10.90
2022-07-28T23:21:12.569Z,10.90
2022-07-28T23:26:15.114Z,10.80
2022-07-28T23:31:17.966Z,10.70
2022-07-28T23:36:27.090Z,10.60
2022-07-28T23:41:30.544Z,10.40
2022-07-28T23:46:33.247Z,10.30
2022-07-28T23:51:48.089Z,10.20
2022-07-28T23:56:52.580Z,10.30
